Wetterstation Vordersexau
Wetterdaten: Woche 20.08.12 - 26.08.12 (KW34)
Datum Zeit Temp. A. Feuchte A. Luftdruck Regen Wind Richtung Taupunkt Windchill Windben
20.08.2012 00:00 21,0 C 77 % 1017,0 hPa 0,0 l/m 0,0 km/h SO 16,8 C 21,0 C 0,0 km/h
20.08.2012 01:00 20,2 C 78 % 1017,1 hPa 0,0 l/m 0,0 km/h SO 16,2 C 20,2 C 0,0 km/h
20.08.2012 02:00 19,9 C 79 % 1016,9 hPa 0,0 l/m 5,2 km/h N-NO 16,1 C 19,9 C 2,9 km/h
20.08.2012 03:00 19,8 C 75 % 1016,9 hPa 0,0 l/m 0,0 km/h O-SO 15,2 C 19,8 C 0,0 km/h
20.08.2012 04:00 18,8 C 77 % 1017,1 hPa 0,0 l/m 0,0 km/h SO 14,7 C 18,8 C 0,0 km/h
20.08.2012 05:00 18,5 C 78 % 1017,3 hPa 0,0 l/m 0,0 km/h SO 14,6 C 18,5 C 0,0 km/h
20.08.2012 06:00 18,4 C 79 % 1017,5 hPa 0,0 l/m 0,0 km/h SO 14,7 C 18,4 C 0,0 km/h
20.08.2012 07:00 18,8 C 80 % 1018,0 hPa 0,0 l/m 0,0 km/h SO 15,3 C 18,8 C 0,0 km/h
20.08.2012 08:00 21,8 C 77 % 1018,8 hPa 0,0 l/m 0,0 km/h SO 17,6 C 21,8 C 0,0 km/h
20.08.2012 09:00 29,8 C 59 % 1018,7 hPa 0,0 l/m 0,0 km/h S-SO 20,9 C 29,8 C 0,0 km/h
20.08.2012 10:00 33,3 C 52 % 1018,9 hPa 0,0 l/m 0,0 km/h S-SO 22,1 C 33,3 C 0,0 km/h
20.08.2012 11:00 37,2 C 40 % 1018,7 hPa 0,0 l/m 0,0 km/h W-NW 21,3 C 37,2 C 0,0 km/h
20.08.2012 12:00 36,4 C 38 % 1018,4 hPa 0,0 l/m 0,0 km/h W 19,8 C 36,4 C 0,0 km/h
20.08.2012 13:00 37,5 C 36 % 1018,3 hPa 0,0 l/m 0,0 km/h N-NO 19,8 C 37,5 C 0,0 km/h
20.08.2012 14:00 37,0 C 37 % 1018,2 hPa 0,0 l/m 0,0 km/h N-NO 19,8 C 37,0 C 0,0 km/h
20.08.2012 15:00 34,6 C 41 % 1018,2 hPa 0,0 l/m 3,9 km/h N-NO 19,4 C 34,6 C 2,2 km/h
20.08.2012 16:00 34,4 C 47 % 1018,6 hPa 0,0 l/m 0,0 km/h N-NW 21,4 C 34,4 C 0,0 km/h
20.08.2012 17:00 31,0 C 53 % 1018,6 hPa 0,0 l/m 0,0 km/h NO 20,3 C 31,0 C 0,0 km/h
20.08.2012 18:00 27,2 C 67 % 1018,5 hPa 0,0 l/m 0,0 km/h O-NO 20,5 C 27,2 C 0,0 km/h
20.08.2012 19:00 26,6 C 72 % 1017,1 hPa 0,0 l/m 0,0 km/h W 21,1 C 26,6 C 0,0 km/h
20.08.2012 20:00 25,3 C 74 % 1018,4 hPa 0,0 l/m 0,0 km/h S 20,3 C 25,3 C 0,0 km/h
20.08.2012 21:00 22,4 C 79 % 1018,8 hPa 0,0 l/m 0,0 km/h NO 18,6 C 22,4 C 0,0 km/h
20.08.2012 22:00 20,8 C 81 % 1019,0 hPa 0,0 l/m 0,0 km/h NO 17,4 C 20,8 C 0,0 km/h
20.08.2012 23:00 20,1 C 81 % 1018,4 hPa 0,0 l/m 0,0 km/h NO 16,7 C 20,1 C 0,0 km/h
21.08.2012 00:00 19,6 C 81 % 1019,2 hPa 0,0 l/m 0,0 km/h N-NO 16,2 C 19,6 C 0,0 km/h
21.08.2012 01:00 19,4 C 82 % 1019,0 hPa 0,0 l/m 0,0 km/h O 16,2 C 19,4 C 0,0 km/h
21.08.2012 02:00 19,3 C 82 % 1018,2 hPa 0,0 l/m 0,0 km/h NO 16,1 C 19,3 C 0,0 km/h
21.08.2012 03:00 18,1 C 82 % 1018,1 hPa 0,0 l/m 0,0 km/h O-SO 15,0 C 18,1 C 0,0 km/h
21.08.2012 04:00 17,3 C 81 % 1017,6 hPa 0,0 l/m 0,0 km/h O-NO 14,0 C 17,3 C 0,0 km/h
21.08.2012 05:00 17,6 C 80 % 1017,3 hPa 0,0 l/m 0,0 km/h NO 14,1 C 17,6 C 0,0 km/h
21.08.2012 06:00 17,0 C 79 % 1017,0 hPa 0,0 l/m 0,0 km/h SO 13,3 C 17,0 C 0,0 km/h
21.08.2012 07:00 18,1 C 76 % 1016,7 hPa 0,0 l/m 0,0 km/h NO 13,8 C 18,1 C 0,0 km/h
21.08.2012 08:00 20,4 C 82 % 1017,0 hPa 0,0 l/m 0,0 km/h SO 17,2 C 20,4 C 0,0 km/h
21.08.2012 09:00 27,2 C 66 % 1016,6 hPa 0,0 l/m 0,0 km/h W-SW 20,3 C 27,2 C 0,0 km/h
21.08.2012 10:00 30,9 C 56 % 1016,7 hPa 0,0 l/m 0,0 km/h W-NW 21,1 C 30,9 C 0,0 km/h
21.08.2012 11:00 33,1 C 50 % 1016,4 hPa 0,0 l/m 0,0 km/h S 21,2 C 33,1 C 0,0 km/h
21.08.2012 12:00 34,3 C 46 % 1015,8 hPa 0,0 l/m 0,0 km/h W 21,0 C 34,3 C 0,0 km/h
21.08.2012 13:00 35,0 C 43 % 1015,6 hPa 0,0 l/m 4,5 km/h W 20,5 C 35,0 C 2,5 km/h
21.08.2012 14:00 35,6 C 45 % 1015,0 hPa 0,0 l/m 0,0 km/h W 21,8 C 35,6 C 0,0 km/h
21.08.2012 15:00 35,6 C 46 % 1014,4 hPa 0,0 l/m 0,0 km/h W 22,2 C 35,6 C 0,0 km/h
21.08.2012 16:00 37,1 C 41 % 1014,0 hPa 0,0 l/m 0,0 km/h S-SW 21,6 C 37,1 C 0,0 km/h
21.08.2012 17:00 32,8 C 49 % 1013,4 hPa 0,0 l/m 0,0 km/h NO 20,6 C 32,8 C 0,0 km/h
21.08.2012 18:00 36,0 C 48 % 1012,8 hPa 0,0 l/m 0,0 km/h O-NO 23,2 C 36,0 C 0,0 km/h
21.08.2012 19:00 33,8 C 55 % 1012,0 hPa 0,0 l/m 0,0 km/h O-NO 23,5 C 33,8 C 0,0 km/h
21.08.2012 20:00 26,8 C 70 % 1012,4 hPa 0,0 l/m 0,0 km/h O-NO 20,9 C 26,8 C 0,0 km/h
21.08.2012 21:00 23,7 C 77 % 1012,8 hPa 0,0 l/m 0,0 km/h SO 19,4 C 23,7 C 0,0 km/h
21.08.2012 22:00 23,3 C 78 % 1012,4 hPa 0,0 l/m 0,0 km/h SO 19,2 C 23,3 C 0,0 km/h
21.08.2012 23:00 22,9 C 79 % 1012,5 hPa 0,0 l/m 0,0 km/h SO 19,1 C 22,9 C 0,0 km/h
22.08.2012 00:00 22,7 C 79 % 1012,8 hPa 0,0 l/m 0,0 km/h O-SO 18,9 C 22,7 C 0,0 km/h
22.08.2012 01:00 21,9 C 80 % 1012,9 hPa 0,0 l/m 0,0 km/h SO 18,3 C 21,9 C 0,0 km/h
22.08.2012 02:00 21,3 C 81 % 1013,1 hPa 0,0 l/m 0,0 km/h O-NO 17,9 C 21,3 C 0,0 km/h
22.08.2012 03:00 20,4 C 81 % 1013,1 hPa 0,0 l/m 0,0 km/h N-NO 17,0 C 20,4 C 0,0 km/h
22.08.2012 04:00 20,1 C 81 % 1013,5 hPa 0,0 l/m 0,0 km/h O-NO 16,7 C 20,1 C 0,0 km/h
22.08.2012 05:00 20,2 C 79 % 1013,7 hPa 0,0 l/m 0,0 km/h O-NO 16,4 C 20,2 C 0,0 km/h
22.08.2012 06:00 20,4 C 81 % 1014,0 hPa 0,0 l/m 0,0 km/h O 17,0 C 20,4 C 0,0 km/h
22.08.2012 07:00 20,9 C 79 % 1014,9 hPa 0,0 l/m 0,0 km/h SO 17,1 C 20,9 C 0,0 km/h
22.08.2012 08:00 23,5 C 81 % 1015,5 hPa 0,0 l/m 0,0 km/h W-NW 20,0 C 23,5 C 0,0 km/h
22.08.2012 09:00 25,3 C 74 % 1016,2 hPa 0,0 l/m 0,0 km/h W 20,3 C 25,3 C 0,0 km/h
22.08.2012 10:00 26,3 C 71 % 1017,0 hPa 0,0 l/m 0,0 km/h NW 20,6 C 26,3 C 0,0 km/h
22.08.2012 11:00 26,5 C 65 % 1017,4 hPa 0,0 l/m 0,0 km/h N 19,4 C 26,5 C 0,0 km/h
22.08.2012 12:00 28,3 C 59 % 1016,9 hPa 0,0 l/m 0,0 km/h W-SW 19,5 C 28,3 C 0,0 km/h
22.08.2012 13:00 31,3 C 53 % 1016,7 hPa 0,0 l/m 0,0 km/h S 20,5 C 31,3 C 0,0 km/h
22.08.2012 14:00 26,4 C 72 % 1016,7 hPa 0,4 l/m 0,0 km/h S 20,9 C 26,4 C 0,0 km/h
22.08.2012 15:00 31,9 C 53 % 1016,3 hPa 0,0 l/m 0,0 km/h N-NW 21,1 C 31,9 C 0,0 km/h
22.08.2012 16:00 35,6 C 39 % 1015,5 hPa 0,0 l/m 0,0 km/h W-NW 19,5 C 35,6 C 0,0 km/h
22.08.2012 17:00 36,2 C 38 % 1015,3 hPa 0,0 l/m 0,0 km/h N-NO 19,6 C 36,2 C 0,0 km/h
22.08.2012 18:00 33,1 C 39 % 1014,8 hPa 0,0 l/m 0,0 km/h NO 17,3 C 33,1 C 0,0 km/h
22.08.2012 19:00 30,4 C 43 % 1014,7 hPa 0,0 l/m 5,8 km/h N-NO 16,4 C 30,4 C 3,2 km/h
22.08.2012 20:00 24,0 C 56 % 1015,2 hPa 0,0 l/m 0,0 km/h O-SO 14,7 C 24,0 C 0,0 km/h
22.08.2012 21:00 20,1 C 70 % 1015,5 hPa 0,0 l/m 0,0 km/h O-SO 14,5 C 20,1 C 0,0 km/h
22.08.2012 22:00 17,6 C 77 % 1016,0 hPa 0,0 l/m 0,0 km/h O-NO 13,5 C 17,6 C 0,0 km/h
22.08.2012 23:00 17,0 C 78 % 1016,1 hPa 0,0 l/m 0,0 km/h O-NO 13,1 C 17,0 C 0,0 km/h
23.08.2012 00:00 15,9 C 80 % 1015,7 hPa 0,0 l/m 0,0 km/h O-NO 12,5 C 15,9 C 0,0 km/h
23.08.2012 01:00 15,0 C 81 % 1015,9 hPa 0,0 l/m 0,0 km/h O 11,8 C 15,0 C 0,0 km/h
23.08.2012 02:00 13,9 C 82 % 1016,0 hPa 0,0 l/m 0,0 km/h SO 10,9 C 13,9 C 0,0 km/h
23.08.2012 03:00 13,5 C 82 % 1016,2 hPa 0,0 l/m 0,0 km/h SO 10,5 C 13,5 C 0,0 km/h
23.08.2012 04:00 14,9 C 83 % 1015,6 hPa 0,0 l/m 0,0 km/h O 12,0 C 14,9 C 0,0 km/h
23.08.2012 05:00 13,9 C 83 % 1015,1 hPa 0,0 l/m 0,0 km/h O 11,1 C 13,9 C 0,0 km/h
23.08.2012 06:00 14,5 C 83 % 1014,7 hPa 0,0 l/m 0,0 km/h O 11,6 C 14,5 C 0,0 km/h
23.08.2012 07:00 15,2 C 82 % 1014,7 hPa 0,0 l/m 0,0 km/h W-NW 12,1 C 15,2 C 0,0 km/h
23.08.2012 08:00 17,3 C 81 % 1014,9 hPa 0,0 l/m 0,0 km/h W 14,0 C 17,3 C 0,0 km/h
23.08.2012 09:00 22,3 C 66 % 1014,6 hPa 0,0 l/m 0,0 km/h W-SW 15,6 C 22,3 C 0,0 km/h
23.08.2012 10:00 26,8 C 54 % 1014,1 hPa 0,0 l/m 0,0 km/h W-SW 16,7 C 26,8 C 0,0 km/h
23.08.2012 11:00 25,6 C 54 % 1014,0 hPa 0,0 l/m 0,0 km/h W-SW 15,6 C 25,6 C 0,0 km/h
23.08.2012 12:00 28,7 C 47 % 1013,7 hPa 0,0 l/m 7,1 km/h W-NW 16,3 C 28,6 C 4,0 km/h
23.08.2012 13:00 29,3 C 47 % 1013,3 hPa 0,0 l/m 0,0 km/h W 16,8 C 29,3 C 0,0 km/h
23.08.2012 14:00 29,6 C 48 % 1012,4 hPa 0,0 l/m 2,6 km/h W-SW 17,4 C 29,6 C 1,4 km/h
23.08.2012 15:00 29,2 C 48 % 1012,4 hPa 0,0 l/m 3,2 km/h W 17,0 C 29,2 C 1,8 km/h
23.08.2012 16:00 35,1 C 38 % 1011,2 hPa 0,0 l/m 0,0 km/h W 18,6 C 35,1 C 0,0 km/h
23.08.2012 17:00 35,1 C 38 % 1010,9 hPa 0,0 l/m 0,0 km/h W 18,6 C 35,1 C 0,0 km/h
23.08.2012 18:00 28,9 C 50 % 1010,0 hPa 0,0 l/m 0,0 km/h NW 17,4 C 28,9 C 0,0 km/h
23.08.2012 19:00 25,9 C 57 % 1009,0 hPa 0,0 l/m 0,0 km/h SO 16,7 C 25,9 C 0,0 km/h
23.08.2012 20:00 22,8 C 71 % 1008,1 hPa 0,0 l/m 0,0 km/h O-SO 17,3 C 22,8 C 0,0 km/h
23.08.2012 21:00 21,8 C 74 % 1008,1 hPa 0,0 l/m 0,0 km/h W 17,0 C 21,8 C 0,0 km/h
23.08.2012 22:00 20,9 C 78 % 1007,5 hPa 0,0 l/m 0,0 km/h O-SO 16,9 C 20,9 C 0,0 km/h
23.08.2012 23:00 18,2 C 81 % 1010,1 hPa 5,3 l/m 5,2 km/h SO 14,9 C 18,2 C 2,9 km/h
24.08.2012 00:00 18,2 C 81 % 1007,0 hPa 1,8 l/m 0,0 km/h O-SO 14,9 C 18,2 C 0,0 km/h
24.08.2012 01:00 18,1 C 81 % 1008,6 hPa 0,0 l/m 0,0 km/h NO 14,8 C 18,1 C 0,0 km/h
24.08.2012 02:00 18,1 C 82 % 1007,8 hPa 0,4 l/m 0,0 km/h N-NO 15,0 C 18,1 C 0,0 km/h
24.08.2012 03:00 17,5 C 79 % 1007,4 hPa 0,0 l/m 0,0 km/h O-SO 13,8 C 17,5 C 0,0 km/h
24.08.2012 04:00 17,3 C 77 % 1006,4 hPa 0,0 l/m 0,0 km/h N-NO 13,2 C 17,3 C 0,0 km/h
24.08.2012 05:00 17,5 C 78 % 1006,0 hPa 0,0 l/m 0,0 km/h O-NO 13,6 C 17,5 C 0,0 km/h
24.08.2012 06:00 17,8 C 78 % 1007,4 hPa 0,0 l/m 0,0 km/h N-NO 13,9 C 17,8 C 0,0 km/h
24.08.2012 07:00 18,9 C 82 % 1007,6 hPa 0,0 l/m 0,0 km/h S-SO 15,8 C 18,9 C 0,0 km/h
24.08.2012 08:00 18,1 C 80 % 1007,8 hPa 1,1 l/m 0,0 km/h N-NO 14,6 C 18,1 C 0,0 km/h
24.08.2012 09:00 19,3 C 80 % 1007,9 hPa 0,0 l/m 0,0 km/h O 15,8 C 19,3 C 0,0 km/h
24.08.2012 10:00 22,4 C 79 % 1008,4 hPa 0,0 l/m 0,0 km/h W-SW 18,6 C 22,4 C 0,0 km/h
24.08.2012 11:00 23,8 C 69 % 1008,5 hPa 0,0 l/m 0,0 km/h S-SW 17,8 C 23,8 C 0,0 km/h
24.08.2012 12:00 22,2 C 71 % 1008,1 hPa 0,0 l/m 0,0 km/h W 16,7 C 22,2 C 0,0 km/h
24.08.2012 13:00 25,3 C 66 % 1008,0 hPa 0,0 l/m 0,0 km/h W-SW 18,5 C 25,3 C 0,0 km/h
24.08.2012 14:00 24,1 C 62 % 1008,3 hPa 0,0 l/m 7,1 km/h W-NW 16,4 C 23,9 C 4,0 km/h
24.08.2012 15:00 19,5 C 79 % 1009,5 hPa 0,4 l/m 0,0 km/h S-SO 15,8 C 19,5 C 0,0 km/h
24.08.2012 16:00 18,9 C 80 % 1009,5 hPa 1,8 l/m 0,0 km/h SO 15,4 C 18,9 C 0,0 km/h
24.08.2012 17:00 18,5 C 79 % 1008,1 hPa 1,8 l/m 0,0 km/h S 14,8 C 18,5 C 0,0 km/h
24.08.2012 18:00 18,8 C 82 % 1007,0 hPa 0,4 l/m 6,5 km/h S-SO 15,7 C 18,8 C 3,6 km/h
24.08.2012 19:00 19,1 C 82 % 1007,4 hPa 0,0 l/m 1,9 km/h NO 16,0 C 19,1 C 1,1 km/h
24.08.2012 20:00 18,1 C 81 % 1008,3 hPa 1,4 l/m 0,0 km/h SO 14,8 C 18,1 C 0,0 km/h
24.08.2012 21:00 18,1 C 76 % 1008,8 hPa 1,1 l/m 0,0 km/h SO 13,8 C 18,1 C 0,0 km/h
24.08.2012 22:00 17,8 C 74 % 1009,2 hPa 1,4 l/m 0,0 km/h S-SO 13,1 C 17,8 C 0,0 km/h
24.08.2012 23:00 17,9 C 73 % 1009,1 hPa 0,4 l/m 0,0 km/h W-SW 13,0 C 17,9 C 0,0 km/h
25.08.2012 00:00 18,3 C 81 % 1008,4 hPa 0,4 l/m 0,0 km/h N-NO 15,0 C 18,3 C 0,0 km/h
25.08.2012 01:00 17,6 C 79 % 1008,7 hPa 0,0 l/m 0,0 km/h N-NO 13,9 C 17,6 C 0,0 km/h
25.08.2012 02:00 17,4 C 74 % 1008,6 hPa 0,0 l/m 0,0 km/h NO 12,7 C 17,4 C 0,0 km/h
25.08.2012 03:00 17,5 C 72 % 1008,8 hPa 0,0 l/m 0,0 km/h O-SO 12,4 C 17,5 C 0,0 km/h
25.08.2012 04:00 17,6 C 69 % 1008,8 hPa 0,0 l/m 0,0 km/h O-NO 11,8 C 17,6 C 0,0 km/h
25.08.2012 05:00 17,9 C 67 % 1008,3 hPa 0,0 l/m 0,0 km/h NO 11,7 C 17,9 C 0,0 km/h
25.08.2012 06:00 17,9 C 74 % 1008,3 hPa 0,0 l/m 0,0 km/h N-NO 13,2 C 17,9 C 0,0 km/h
25.08.2012 07:00 18,1 C 71 % 1008,5 hPa 0,0 l/m 0,0 km/h SW 12,8 C 18,1 C 0,0 km/h
25.08.2012 08:00 19,4 C 81 % 1009,0 hPa 0,0 l/m 0,0 km/h SW 16,1 C 19,4 C 0,0 km/h
25.08.2012 09:00 20,6 C 78 % 1009,5 hPa 0,0 l/m 25,9 km/h SW 16,6 C 16,1 C 14,4 km/h
25.08.2012 10:00 21,2 C 74 % 1009,9 hPa 0,0 l/m 10,4 km/h SW 16,4 C 19,8 C 5,8 km/h
25.08.2012 11:00 24,0 C 67 % 1010,1 hPa 0,0 l/m 22,0 km/h W-SW 17,5 C 21,1 C 12,2 km/h
25.08.2012 12:00 26,0 C 56 % 1010,1 hPa 0,0 l/m 29,8 km/h S 16,5 C 23,2 C 16,6 km/h
25.08.2012 13:00 25,4 C 54 % 1010,1 hPa 0,0 l/m 5,8 km/h S 15,4 C 25,4 C 3,2 km/h
25.08.2012 14:00 27,9 C 48 % 1009,8 hPa 0,0 l/m 34,3 km/h W 15,9 C 25,6 C 19,1 km/h
25.08.2012 15:00 26,9 C 51 % 1009,4 hPa 0,0 l/m 8,4 km/h W 15,9 C 26,5 C 4,7 km/h
25.08.2012 16:00 25,2 C 51 % 1009,8 hPa 0,0 l/m 0,0 km/h W 14,3 C 25,2 C 0,0 km/h
25.08.2012 17:00 22,4 C 55 % 1009,9 hPa 0,0 l/m 3,2 km/h W-SW 12,9 C 22,4 C 1,8 km/h
25.08.2012 18:00 20,8 C 55 % 1009,3 hPa 0,0 l/m 0,0 km/h S-SW 11,4 C 20,8 C 0,0 km/h
25.08.2012 19:00 20,5 C 54 % 1009,1 hPa 0,0 l/m 0,0 km/h S-SW 10,9 C 20,5 C 0,0 km/h
25.08.2012 20:00 16,6 C 72 % 1011,1 hPa 0,0 l/m 13,0 km/h W 11,5 C 13,8 C 7,2 km/h
25.08.2012 21:00 15,5 C 80 % 1011,8 hPa 0,0 l/m 0,0 km/h SO 12,1 C 15,5 C 0,0 km/h
25.08.2012 22:00 16,2 C 80 % 1011,3 hPa 0,0 l/m 0,0 km/h SW 12,7 C 16,2 C 0,0 km/h
25.08.2012 23:00 16,2 C 77 % 1012,2 hPa 0,0 l/m 0,0 km/h W 12,2 C 16,2 C 0,0 km/h
26.08.2012 00:00 17,2 C 73 % 1012,6 hPa 0,0 l/m 0,0 km/h W-SW 12,3 C 17,2 C 0,0 km/h
26.08.2012 01:00 17,2 C 74 % 1012,9 hPa 0,0 l/m 0,0 km/h SW 12,5 C 17,2 C 0,0 km/h
26.08.2012 02:00 16,2 C 77 % 1013,4 hPa 0,0 l/m 0,0 km/h SW 12,2 C 16,2 C 0,0 km/h
26.08.2012 03:00 16,9 C 76 % 1013,2 hPa 0,0 l/m 7,1 km/h W 12,6 C 16,5 C 4,0 km/h
26.08.2012 04:00 16,4 C 78 % 1013,6 hPa 0,0 l/m 0,0 km/h W 12,6 C 16,4 C 0,0 km/h
26.08.2012 05:00 15,9 C 79 % 1013,5 hPa 0,0 l/m 0,0 km/h W-SW 12,3 C 15,9 C 0,0 km/h
26.08.2012 06:00 15,6 C 78 % 1013,9 hPa 0,0 l/m 10,4 km/h S-SW 11,8 C 13,6 C 5,8 km/h
26.08.2012 07:00 15,0 C 76 % 1014,4 hPa 0,0 l/m 1,3 km/h W-SW 10,8 C 15,0 C 0,7 km/h
26.08.2012 08:00 16,5 C 71 % 1014,6 hPa 0,0 l/m 5,2 km/h W-SW 11,2 C 16,5 C 2,9 km/h
26.08.2012 09:00 16,4 C 73 % 1015,2 hPa 0,0 l/m 20,7 km/h W-SW 11,5 C 11,4 C 11,5 km/h
26.08.2012 10:00 15,2 C 77 % 1016,0 hPa 0,0 l/m 21,4 km/h S-SO 11,2 C 9,7 C 11,9 km/h
26.08.2012 11:00 16,9 C 71 % 1016,7 hPa 0,0 l/m 29,8 km/h W 11,6 C 10,4 C 16,6 km/h
26.08.2012 12:00 19,8 C 63 % 1016,9 hPa 0,0 l/m 11,0 km/h W-SW 12,5 C 18,1 C 6,1 km/h
26.08.2012 13:00 18,7 C 65 % 1016,9 hPa 0,0 l/m 7,8 km/h W-SW 12,0 C 18,1 C 4,3 km/h
26.08.2012 14:00 21,3 C 57 % 1016,8 hPa 0,0 l/m 14,9 km/h W-NW 12,4 C 18,8 C 8,3 km/h
26.08.2012 15:00 20,3 C 62 % 1017,1 hPa 0,0 l/m 13,0 km/h W-SW 12,8 C 18,1 C 7,2 km/h
26.08.2012 16:00 21,0 C 56 % 1017,1 hPa 0,0 l/m 20,7 km/h W-SW 11,9 C 17,4 C 11,5 km/h
26.08.2012 17:00 19,3 C 62 % 1017,1 hPa 0,0 l/m 7,8 km/h W-SW 11,8 C 18,7 C 4,3 km/h
26.08.2012 18:00 18,3 C 68 % 1017,4 hPa 0,0 l/m 3,9 km/h W 12,3 C 18,3 C 2,2 km/h
26.08.2012 19:00 20,8 C 58 % 1017,6 hPa 0,0 l/m 0,0 km/h W-SW 12,2 C 20,8 C 0,0 km/h
26.08.2012 20:00 17,4 C 68 % 1018,3 hPa 0,0 l/m 0,0 km/h S 11,4 C 17,4 C 0,0 km/h
26.08.2012 21:00 15,5 C 73 % 1019,4 hPa 0,0 l/m 0,0 km/h S-SW 10,7 C 15,5 C 0,0 km/h
26.08.2012 22:00 15,3 C 76 % 1020,2 hPa 0,0 l/m 0,0 km/h N-NO 11,1 C 15,3 C 0,0 km/h
26.08.2012 23:00 15,2 C 76 % 1020,5 hPa 0,0 l/m 0,0 km/h N 11,0 C 15,2 C 0,0 km/h
Min-Datum _ 23.08.12 20.08.12 24.08.12 - 20.08.12 - 23.08.12 26.08.12 20.08.12
_ Min-Zeit 03:19 13:19 05:19 - 00:19 - 03:19 10:19 00:19
Minimum _ 13,5 C 36 % 1006,0 hPa - 0,0 km/h - 10,5 C 9,7 C 0,0 km/h
Max-Datum _ 20.08.12 23.08.12 26.08.12 23.08.12 25.08.12 - 21.08.12 20.08.12 25.08.12
_ Max-Zeit 13:19 04:19 23:19 23:19 14:19 - 19:19 13:19 14:19
Maximum _ 37,5 C 83 % 1020,5 hPa 5,3 l/m 34,3 km/h
W
- 23,5 C 37,5 C 19,1 km/h
W
Durchschnitt _ 22,5 C 68 % 1013,6 hPa #17,8 l/m 2,3 km/h SO 15,9 C 22,2 C 1,3 km/h
www.sexauwetter.de